createdAt,value
2022-10-14T00:00:08.723Z,74.60
2022-10-14T00:03:03.290Z,76.60
2022-10-14T00:05:35.062Z,74.20
2022-10-14T00:08:06.920Z,78.10
2022-10-14T00:10:41.060Z,72.00
2022-10-14T00:13:12.755Z,73.00
2022-10-14T00:15:44.981Z,74.60
2022-10-14T00:18:16.900Z,74.40
2022-10-14T00:20:57.946Z,75.70
2022-10-14T00:23:30.093Z,75.90
2022-10-14T00:26:02.388Z,73.20
2022-10-14T00:28:35.461Z,71.70
2022-10-14T00:31:07.308Z,70.10
2022-10-14T00:33:39.030Z,67.10
2022-10-14T00:36:13.854Z,66.60
2022-10-14T00:38:47.659Z,65.70
2022-10-14T00:41:21.933Z,67.10
2022-10-14T00:44:02.235Z,65.40
2022-10-14T00:46:36.061Z,63.90
2022-10-14T00:49:15.563Z,63.00
2022-10-14T00:51:53.481Z,58.30
2022-10-14T00:54:30.419Z,56.70
2022-10-14T00:57:03.387Z,54.60
2022-10-14T00:59:37.275Z,53.20
2022-10-14T01:02:09.392Z,56.00
2022-10-14T01:04:44.011Z,52.90
2022-10-14T01:07:25.342Z,55.50
2022-10-14T01:10:04.289Z,56.40
2022-10-14T01:12:45.294Z,59.50
2022-10-14T01:15:26.419Z,57.00
2022-10-14T01:18:09.864Z,59.40
2022-10-14T01:20:54.983Z,54.90
2022-10-14T01:23:55.474Z,54.10
2022-10-14T01:26:49.668Z,51.90
2022-10-14T01:29:34.954Z,54.10
2022-10-14T01:32:14.336Z,52.10
2022-10-14T01:34:53.518Z,53.30
2022-10-14T01:37:30.090Z,55.10
2022-10-14T01:40:06.796Z,55.70
2022-10-14T01:42:42.208Z,58.10
2022-10-14T01:45:20.103Z,56.10
2022-10-14T01:47:54.487Z,59.90
2022-10-14T01:50:29.182Z,53.50
2022-10-14T01:53:06.276Z,53.60
2022-10-14T01:55:43.479Z,54.90
2022-10-14T01:58:18.116Z,53.20
2022-10-14T02:00:50.034Z,52.40
2022-10-14T02:03:21.732Z,54.90
2022-10-14T02:06:00.781Z,55.20
2022-10-14T02:08:46.529Z,58.30
2022-10-14T02:11:21.141Z,58.00
2022-10-14T02:14:09.194Z,59.70
2022-10-14T02:16:49.355Z,54.60
2022-10-14T02:19:30.561Z,52.20
2022-10-14T02:22:06.969Z,53.30
2022-10-14T02:24:41.989Z,54.20
2022-10-14T02:27:17.500Z,53.00
2022-10-14T02:29:50.667Z,52.60
2022-10-14T02:32:25.381Z,56.30
2022-10-14T02:34:59.938Z,56.80
2022-10-14T02:37:34.040Z,57.00
2022-10-14T02:40:12.799Z,58.70
2022-10-14T02:42:44.688Z,59.60
2022-10-14T02:45:17.402Z,55.50
2022-10-14T02:47:50.005Z,53.20
2022-10-14T02:50:22.202Z,52.90
2022-10-14T02:52:56.424Z,51.30
2022-10-14T02:55:28.275Z,51.70
2022-10-14T02:57:59.969Z,52.00
2022-10-14T03:00:31.827Z,51.60
2022-10-14T03:03:03.669Z,52.70
2022-10-14T03:05:35.683Z,53.80
2022-10-14T03:08:07.837Z,50.30
2022-10-14T03:10:39.496Z,54.70
2022-10-14T03:13:12.857Z,50.70
2022-10-14T03:15:48.865Z,47.90
2022-10-14T03:18:21.696Z,49.20
2022-10-14T03:20:53.876Z,46.20
2022-10-14T03:23:28.886Z,43.30
2022-10-14T03:26:00.566Z,45.20
2022-10-14T03:28:38.000Z,47.50
2022-10-14T03:31:23.968Z,46.80
2022-10-14T03:34:14.444Z,47.00
2022-10-14T03:36:46.672Z,42.30
2022-10-14T03:39:18.507Z,40.40
2022-10-14T03:41:53.742Z,40.20
2022-10-14T03:44:30.805Z,39.10
2022-10-14T03:47:23.499Z,38.90
2022-10-14T03:49:55.907Z,37.50
2022-10-14T03:52:32.448Z,39.40
2022-10-14T03:55:10.443Z,39.50
2022-10-14T03:57:42.304Z,39.70
2022-10-14T04:00:17.485Z,40.40
2022-10-14T04:02:51.260Z,38.10
2022-10-14T04:05:37.245Z,35.60
2022-10-14T04:08:14.022Z,34.90
2022-10-14T04:10:54.538Z,34.50
2022-10-14T04:13:26.854Z,32.70
2022-10-14T04:15:58.864Z,32.20
2022-10-14T04:18:39.337Z,35.30
2022-10-14T04:21:14.830Z,35.70
2022-10-14T04:23:47.367Z,36.40
2022-10-14T04:26:20.943Z,39.00
2022-10-14T04:28:52.910Z,36.40
2022-10-14T04:31:35.160Z,33.80
2022-10-14T04:34:07.999Z,37.50
2022-10-14T04:36:42.428Z,32.90
2022-10-14T04:39:27.156Z,34.40
2022-10-14T04:41:59.130Z,33.50
2022-10-14T04:44:31.021Z,35.70
2022-10-14T04:47:05.745Z,34.50
2022-10-14T04:49:37.576Z,36.00
2022-10-14T04:55:07.506Z,34.80
2022-10-14T04:57:43.918Z,32.50
2022-10-14T05:00:18.014Z,32.80
2022-10-14T05:03:04.676Z,32.60
2022-10-14T05:05:38.941Z,32.50
2022-10-14T05:08:10.713Z,29.00
2022-10-14T05:10:45.731Z,28.40
2022-10-14T05:13:21.629Z,28.50
2022-10-14T05:16:00.108Z,26.50
2022-10-14T05:18:32.239Z,30.00
2022-10-14T05:21:07.572Z,28.50
2022-10-14T05:23:57.495Z,28.60
2022-10-14T05:26:30.605Z,28.60
2022-10-14T05:29:03.498Z,28.30
2022-10-14T05:31:35.489Z,28.80
2022-10-14T05:34:15.832Z,27.10
2022-10-14T05:36:48.247Z,26.40
2022-10-14T05:39:20.978Z,25.60
2022-10-14T05:41:53.127Z,26.90
2022-10-14T05:44:28.191Z,26.40
2022-10-14T05:47:00.311Z,28.10
2022-10-14T05:49:32.430Z,25.70
2022-10-14T05:52:06.343Z,27.50
2022-10-14T05:54:38.459Z,25.20
2022-10-14T05:57:11.007Z,25.70
2022-10-14T05:59:43.473Z,25.10
2022-10-14T06:02:15.429Z,23.60
2022-10-14T06:04:47.516Z,25.00
2022-10-14T06:07:19.949Z,24.60
2022-10-14T06:09:51.873Z,24.70
2022-10-14T06:12:25.758Z,24.00
2022-10-14T06:14:57.892Z,25.90
2022-10-14T06:20:18.614Z,23.50
2022-10-14T06:22:50.481Z,24.60
2022-10-14T06:25:22.829Z,23.50
2022-10-14T06:27:55.236Z,25.50
2022-10-14T06:30:27.473Z,23.90
2022-10-14T06:33:00.161Z,23.30
2022-10-14T06:35:32.251Z,24.30
2022-10-14T06:38:07.613Z,24.90
2022-10-14T06:40:40.463Z,25.20
2022-10-14T06:43:12.950Z,24.30
2022-10-14T06:45:45.610Z,24.10
2022-10-14T06:48:17.566Z,24.70
2022-10-14T06:50:49.772Z,22.50
2022-10-14T06:53:22.328Z,22.20
2022-10-14T06:56:00.621Z,20.90
2022-10-14T07:01:07.014Z,21.20
2022-10-14T07:03:39.636Z,23.30
2022-10-14T07:06:12.351Z,25.90
2022-10-14T07:08:45.370Z,26.70
2022-10-14T07:17:18.197Z,26.50
2022-10-14T07:19:50.081Z,23.90
2022-10-14T07:22:22.336Z,24.50
2022-10-14T07:24:54.933Z,23.00
2022-10-14T07:27:28.322Z,21.90
2022-10-14T07:30:01.870Z,21.80
2022-10-14T07:32:37.018Z,20.90
2022-10-14T07:35:10.959Z,19.80
2022-10-14T07:37:45.637Z,20.80
2022-10-14T07:40:17.800Z,20.20
2022-10-14T07:42:49.766Z,21.50
2022-10-14T07:45:21.844Z,21.10
2022-10-14T07:47:53.995Z,20.80
2022-10-14T07:50:26.061Z,19.20
2022-10-14T07:53:01.180Z,20.30
2022-10-14T07:55:33.525Z,19.70
2022-10-14T07:58:05.438Z,19.60
2022-10-14T08:00:38.553Z,20.00
2022-10-14T08:03:10.554Z,22.30
2022-10-14T08:05:42.743Z,22.50
2022-10-14T08:08:15.757Z,24.80
2022-10-14T08:10:48.013Z,24.50
2022-10-14T08:13:19.906Z,24.80
2022-10-14T08:15:51.898Z,24.10
2022-10-14T08:18:26.966Z,24.60
2022-10-14T08:20:59.449Z,22.40
2022-10-14T08:23:33.000Z,21.60
2022-10-14T08:26:05.512Z,20.70
2022-10-14T08:28:37.926Z,20.60
2022-10-14T08:31:10.051Z,21.70
2022-10-14T08:33:41.907Z,21.50
2022-10-14T08:36:14.573Z,21.50
2022-10-14T08:38:46.824Z,21.00
2022-10-14T08:41:31.030Z,21.10
2022-10-14T08:44:15.286Z,20.40
2022-10-14T08:46:52.475Z,20.60
2022-10-14T08:49:30.863Z,21.00
2022-10-14T08:52:05.038Z,19.10
2022-10-14T08:54:42.732Z,19.20
2022-10-14T08:57:20.173Z,20.00
2022-10-14T08:59:51.955Z,20.20
2022-10-14T09:02:37.110Z,20.40
2022-10-14T09:05:14.762Z,20.10
2022-10-14T09:10:31.409Z,18.80
2022-10-14T09:13:15.509Z,16.90
2022-10-14T09:15:51.444Z,16.80
2022-10-14T09:18:33.886Z,18.30
2022-10-14T09:21:27.762Z,17.50
2022-10-14T09:24:16.712Z,17.80
2022-10-14T09:26:52.522Z,18.10
2022-10-14T09:29:28.752Z,18.00
2022-10-14T09:32:07.517Z,18.30
2022-10-14T09:34:42.523Z,17.20
2022-10-14T09:37:27.097Z,17.30
2022-10-14T09:40:03.456Z,16.70
2022-10-14T09:42:45.570Z,16.90
2022-10-14T09:45:19.990Z,17.60
2022-10-14T09:47:57.199Z,17.50
2022-10-14T09:50:41.412Z,18.20
2022-10-14T09:53:26.476Z,18.80
2022-10-14T09:56:01.103Z,19.10
2022-10-14T09:58:37.463Z,19.50
2022-10-14T10:01:15.936Z,18.00
2022-10-14T10:03:49.289Z,17.80
2022-10-14T10:06:26.002Z,17.60
2022-10-14T10:09:02.111Z,17.80
2022-10-14T10:11:37.677Z,17.80
2022-10-14T10:14:23.525Z,17.90
2022-10-14T10:17:19.535Z,18.20
2022-10-14T10:20:07.162Z,19.30
2022-10-14T10:22:39.570Z,17.50
2022-10-14T10:25:28.272Z,18.30
2022-10-14T10:28:02.462Z,19.00
2022-10-14T10:30:44.899Z,19.70
2022-10-14T10:33:29.349Z,19.20
2022-10-14T10:36:24.175Z,19.60
2022-10-14T10:39:03.669Z,17.30
2022-10-14T10:41:48.538Z,16.50
2022-10-14T10:44:40.647Z,16.00
2022-10-14T10:47:24.896Z,16.80
2022-10-14T10:50:18.257Z,17.80
2022-10-14T10:53:11.235Z,18.20
2022-10-14T10:55:56.585Z,17.70
2022-10-14T10:58:44.398Z,17.80
2022-10-14T11:04:08.755Z,17.70
2022-10-14T11:07:07.980Z,17.90
2022-10-14T11:10:08.762Z,17.70
2022-10-14T11:12:50.431Z,16.00
2022-10-14T11:15:33.125Z,16.90
2022-10-14T11:18:10.683Z,16.50
2022-10-14T11:20:55.805Z,16.80
2022-10-14T11:23:49.604Z,16.70
2022-10-14T11:26:38.335Z,15.60
2022-10-14T11:29:27.423Z,14.90
2022-10-14T11:32:11.699Z,15.90
2022-10-14T11:34:54.214Z,15.80
2022-10-14T11:37:45.331Z,14.60
2022-10-14T11:40:25.756Z,15.30
2022-10-14T11:43:08.848Z,14.60
2022-10-14T11:45:53.739Z,14.60
2022-10-14T11:48:33.935Z,13.20
2022-10-14T11:51:17.310Z,12.70
2022-10-14T11:54:00.985Z,14.20
2022-10-14T11:56:38.749Z,14.60
2022-10-14T11:59:23.919Z,12.80
2022-10-14T12:02:02.048Z,11.90
2022-10-14T12:04:38.383Z,11.70
2022-10-14T12:07:17.644Z,13.80
2022-10-14T12:09:59.024Z,13.00
2022-10-14T12:12:33.601Z,11.00
2022-10-14T12:15:14.817Z,11.40
2022-10-14T12:17:51.257Z,11.40
2022-10-14T12:20:31.277Z,11.00
2022-10-14T12:23:06.291Z,11.40
2022-10-14T12:25:48.734Z,11.50
2022-10-14T12:28:22.166Z,11.90
2022-10-14T12:31:14.032Z,11.40
2022-10-14T12:34:25.641Z,12.30
2022-10-14T12:36:57.414Z,11.30
2022-10-14T12:39:42.980Z,12.10
2022-10-14T12:42:16.995Z,10.70
2022-10-14T12:44:52.559Z,10.10
2022-10-14T12:47:30.990Z,10.00
2022-10-14T12:50:04.947Z,9.60
2022-10-14T12:52:39.771Z,10.40
2022-10-14T12:55:18.841Z,11.00
2022-10-14T12:57:56.437Z,11.60
2022-10-14T13:00:39.228Z,10.40
2022-10-14T13:03:22.836Z,10.00
2022-10-14T13:06:30.946Z,10.00
2022-10-14T13:09:33.255Z,9.90
2022-10-14T13:12:46.912Z,9.60
2022-10-14T13:15:53.242Z,9.10
2022-10-14T13:18:52.643Z,9.30
2022-10-14T13:21:53.504Z,9.30
2022-10-14T13:24:29.332Z,9.70
2022-10-14T13:27:15.541Z,10.30
2022-10-14T13:30:03.846Z,9.70
2022-10-14T13:32:42.025Z,9.50
2022-10-14T13:35:25.485Z,9.00
2022-10-14T13:38:01.306Z,8.30
2022-10-14T13:40:35.644Z,9.50
2022-10-14T13:43:16.629Z,14.30
2022-10-14T13:45:53.414Z,9.80
2022-10-14T13:48:31.419Z,9.90
2022-10-14T13:51:36.553Z,9.20
2022-10-14T13:54:24.100Z,9.80
2022-10-14T13:57:38.359Z,9.90
2022-10-14T14:02:54.512Z,10.00
2022-10-14T14:05:36.021Z,9.90
2022-10-14T14:11:16.366Z,10.70
2022-10-14T14:13:59.833Z,10.50
2022-10-14T14:16:36.325Z,10.70
2022-10-14T14:19:18.447Z,11.00
2022-10-14T14:21:50.122Z,9.80
2022-10-14T14:24:25.736Z,10.10
2022-10-14T14:26:58.262Z,10.70
2022-10-14T14:29:33.116Z,10.80
2022-10-14T14:32:08.162Z,10.50
2022-10-14T14:34:43.703Z,10.40
2022-10-14T14:40:21.906Z,11.00
2022-10-14T14:42:56.138Z,11.50
2022-10-14T14:45:30.574Z,12.20
2022-10-14T14:48:07.751Z,11.80
2022-10-14T14:50:43.485Z,11.20
2022-10-14T14:53:20.570Z,11.20
2022-10-14T14:56:05.843Z,10.70
2022-10-14T14:58:44.976Z,11.90
2022-10-14T15:01:25.459Z,10.50
2022-10-14T15:04:13.718Z,12.20
2022-10-14T15:06:53.486Z,12.70
2022-10-14T15:09:31.348Z,13.60
2022-10-14T15:12:05.325Z,13.50
2022-10-14T15:14:46.248Z,12.60
2022-10-14T15:17:34.230Z,11.90
2022-10-14T15:20:29.593Z,12.30
2022-10-14T15:23:01.321Z,11.90
2022-10-14T15:25:34.163Z,12.60
2022-10-14T15:28:06.006Z,12.40
2022-10-14T15:30:55.669Z,12.40
2022-10-14T15:33:28.391Z,12.20
2022-10-14T15:36:02.802Z,13.20
2022-10-14T15:38:35.546Z,13.70
2022-10-14T15:41:07.798Z,12.40
2022-10-14T15:43:39.988Z,12.30
2022-10-14T15:46:32.760Z,12.90
2022-10-14T15:49:12.861Z,13.20
2022-10-14T15:51:44.594Z,13.30
2022-10-14T15:54:18.786Z,14.40
2022-10-14T15:56:50.485Z,14.80
2022-10-14T15:59:22.228Z,15.10
2022-10-14T16:01:54.735Z,15.80
2022-10-14T16:04:28.071Z,15.90
2022-10-14T16:06:59.983Z,16.20
2022-10-14T16:09:31.737Z,16.50
2022-10-14T16:12:05.101Z,15.90
2022-10-14T16:14:37.352Z,18.00
2022-10-14T16:17:09.627Z,18.20
2022-10-14T16:19:43.959Z,19.20
2022-10-14T16:22:17.572Z,17.80
2022-10-14T16:24:49.274Z,18.50
2022-10-14T16:27:21.378Z,19.90
2022-10-14T16:29:53.377Z,18.40
2022-10-14T16:32:25.281Z,20.30
2022-10-14T16:34:57.151Z,23.00
2022-10-14T16:37:28.853Z,20.90
2022-10-14T16:40:01.065Z,19.60
2022-10-14T16:42:32.774Z,19.10
2022-10-14T16:45:05.014Z,20.20
2022-10-14T16:47:36.894Z,21.20
2022-10-14T16:50:11.657Z,21.10
2022-10-14T16:53:03.634Z,19.20
2022-10-14T16:55:37.830Z,19.90
2022-10-14T16:58:09.494Z,19.30
2022-10-14T17:00:42.305Z,19.20
2022-10-14T17:03:15.232Z,21.50
2022-10-14T17:05:49.547Z,20.50
2022-10-14T17:08:21.896Z,21.20
2022-10-14T17:10:59.620Z,19.30
2022-10-14T17:13:31.710Z,20.20
2022-10-14T17:16:04.545Z,19.40
2022-10-14T17:18:37.227Z,20.90
2022-10-14T17:21:12.233Z,21.80
2022-10-14T17:23:45.364Z,23.00
2022-10-14T17:26:18.996Z,24.50
2022-10-14T17:28:51.307Z,26.50
2022-10-14T17:31:23.751Z,24.90
2022-10-14T17:33:56.009Z,23.40
2022-10-14T17:36:30.852Z,26.30
2022-10-14T17:39:03.306Z,25.30
2022-10-14T17:41:35.172Z,25.90
2022-10-14T17:44:07.039Z,21.60
2022-10-14T17:46:38.787Z,21.80
2022-10-14T17:49:11.018Z,20.70
2022-10-14T17:51:42.732Z,24.20
2022-10-14T17:54:14.725Z,22.10
2022-10-14T17:56:46.398Z,20.90
2022-10-14T17:59:18.175Z,19.50
2022-10-14T18:02:05.533Z,18.90
2022-10-14T18:04:37.545Z,17.80
2022-10-14T18:07:09.342Z,17.60
2022-10-14T18:09:41.091Z,17.80
2022-10-14T18:12:12.773Z,18.50
2022-10-14T18:14:44.803Z,18.20
2022-10-14T18:17:16.930Z,19.10
2022-10-14T18:19:52.132Z,16.70
2022-10-14T18:22:24.266Z,16.80
2022-10-14T18:24:56.100Z,18.10
2022-10-14T18:27:28.137Z,16.80
2022-10-14T18:29:59.875Z,23.00
2022-10-14T18:32:31.583Z,23.50
2022-10-14T18:35:03.566Z,23.60
2022-10-14T18:37:35.743Z,21.00
2022-10-14T18:40:09.117Z,26.70
2022-10-14T18:42:41.017Z,24.30
2022-10-14T18:45:13.152Z,26.40
2022-10-14T18:47:45.190Z,26.40
2022-10-14T18:50:17.072Z,25.50
2022-10-14T18:52:48.907Z,25.40
2022-10-14T18:55:20.624Z,22.30
2022-10-14T18:57:53.551Z,18.40
2022-10-14T19:00:26.920Z,17.30
2022-10-14T19:02:58.771Z,17.30
2022-10-14T19:05:33.237Z,17.70
2022-10-14T19:08:07.565Z,17.80
2022-10-14T19:10:39.522Z,16.50
2022-10-14T19:13:12.274Z,17.10
2022-10-14T19:15:46.126Z,16.50
2022-10-14T19:18:21.818Z,17.80
2022-10-14T19:20:56.825Z,18.50
2022-10-14T19:23:28.617Z,18.20
2022-10-14T19:26:01.233Z,17.80
2022-10-14T19:28:33.134Z,18.30
2022-10-14T19:31:09.116Z,18.70
2022-10-14T19:33:42.525Z,20.90
2022-10-14T19:36:16.075Z,20.70
2022-10-14T19:38:52.136Z,20.30
2022-10-14T19:41:24.290Z,21.10
2022-10-14T19:43:57.112Z,22.00
2022-10-14T19:46:30.383Z,21.60
2022-10-14T19:49:04.369Z,21.30
2022-10-14T19:51:36.720Z,22.00
2022-10-14T19:54:08.694Z,22.10
2022-10-14T19:56:40.760Z,23.50
2022-10-14T19:59:14.210Z,22.80
2022-10-14T20:01:46.041Z,23.60
2022-10-14T20:04:20.804Z,23.70
2022-10-14T20:06:54.626Z,25.80
2022-10-14T20:09:26.381Z,24.30
2022-10-14T20:11:58.459Z,25.40
2022-10-14T20:14:30.515Z,25.80
2022-10-14T20:17:03.859Z,27.60
2022-10-14T20:19:39.904Z,25.90
2022-10-14T20:22:12.176Z,25.00
2022-10-14T20:24:44.525Z,23.20
2022-10-14T20:27:16.307Z,22.60
2022-10-14T20:29:48.140Z,24.30
2022-10-14T20:32:19.981Z,23.00
2022-10-14T20:34:51.745Z,20.80
2022-10-14T20:37:27.271Z,20.50
2022-10-14T20:39:59.978Z,18.10
2022-10-14T20:42:33.917Z,19.70
2022-10-14T20:45:06.981Z,19.50
2022-10-14T20:47:38.670Z,18.90
2022-10-14T20:50:11.764Z,20.30
2022-10-14T20:52:43.878Z,20.60
2022-10-14T20:55:16.445Z,20.20
2022-10-14T20:57:48.164Z,19.80
2022-10-14T21:00:20.377Z,20.00
2022-10-14T21:02:53.369Z,21.00
2022-10-14T21:05:25.068Z,20.90
2022-10-14T21:07:56.933Z,20.30
2022-10-14T21:10:30.540Z,20.30
2022-10-14T21:13:02.313Z,20.60
2022-10-14T21:15:34.376Z,21.50
2022-10-14T21:18:06.655Z,21.00
2022-10-14T21:20:38.398Z,19.70
2022-10-14T21:23:10.105Z,20.80
2022-10-14T21:25:41.866Z,21.50
2022-10-14T21:28:13.900Z,19.90
2022-10-14T21:30:46.012Z,20.70
2022-10-14T21:33:17.796Z,21.00
2022-10-14T21:35:49.474Z,20.70
2022-10-14T21:38:21.278Z,20.50
2022-10-14T21:40:53.206Z,20.50
2022-10-14T21:43:25.466Z,21.50
2022-10-14T21:45:57.235Z,19.60
2022-10-14T21:48:28.919Z,20.20
2022-10-14T21:51:09.246Z,21.10
2022-10-14T21:53:42.580Z,20.20
2022-10-14T21:56:15.615Z,19.70
2022-10-14T21:58:47.460Z,19.50
2022-10-14T22:01:22.710Z,18.80
2022-10-14T22:03:58.158Z,18.70
2022-10-14T22:06:30.872Z,19.60
2022-10-14T22:09:05.171Z,19.50
2022-10-14T22:11:39.761Z,19.10
2022-10-14T22:14:14.982Z,18.20
2022-10-14T22:16:47.233Z,19.10
2022-10-14T22:19:19.892Z,19.40
2022-10-14T22:21:51.612Z,19.50
2022-10-14T22:24:23.326Z,18.90
2022-10-14T22:26:55.669Z,18.90
2022-10-14T22:29:27.470Z,18.40
2022-10-14T22:31:59.508Z,18.10
2022-10-14T22:34:31.313Z,16.90
2022-10-14T22:37:03.015Z,17.70
2022-10-14T22:39:34.767Z,17.50
2022-10-14T22:42:06.655Z,17.70
2022-10-14T22:44:38.768Z,16.60
2022-10-14T22:47:10.866Z,17.90
2022-10-14T22:49:42.560Z,18.50
2022-10-14T22:52:14.218Z,19.50
2022-10-14T22:54:45.943Z,19.40
2022-10-14T22:57:18.173Z,19.40
2022-10-14T22:59:49.909Z,18.40
2022-10-14T23:02:21.999Z,18.30
2022-10-14T23:04:53.956Z,18.10
2022-10-14T23:07:25.779Z,17.80
2022-10-14T23:09:57.459Z,18.50
2022-10-14T23:12:29.473Z,17.10
2022-10-14T23:15:01.170Z,17.00
2022-10-14T23:17:33.291Z,17.80
2022-10-14T23:20:05.154Z,17.70
2022-10-14T23:22:37.167Z,17.10
2022-10-14T23:25:10.254Z,15.80
2022-10-14T23:27:42.290Z,15.10
2022-10-14T23:30:14.546Z,14.00
2022-10-14T23:32:46.246Z,13.60
2022-10-14T23:35:18.381Z,13.00
2022-10-14T23:37:50.356Z,13.00
2022-10-14T23:40:22.046Z,12.90
2022-10-14T23:42:53.671Z,12.20
2022-10-14T23:45:25.370Z,12.80
2022-10-14T23:47:57.253Z,13.20
2022-10-14T23:50:29.925Z,12.60
2022-10-14T23:53:01.806Z,12.20
2022-10-14T23:55:33.573Z,11.90
2022-10-14T23:58:05.245Z,11.90
